Time;durP1;ratioP1;P1;durP2;ratioP2;P2;SDS_P1;SDS_P2;PMS_P1;PMS_P2;Temp;Humidity;BMP_temperature;BMP_pressure;BME280_temperature;BME280_humidity;BME280_pressure;Samples;Min_cycle;Max_cycle;Signal;HPM_P1;HPM_P2
2021/12/17 00:04:49;;;;;;;3.38;1.55;;;;;;;15.11;41.50;97907.03;5033502;28;20080;-29
2021/12/17 00:07:15;;;;;;;2.28;1.73;;;;;;;15.05;41.72;97906.00;5033517;28;20026;-29
2021/12/17 00:09:43;;;;;;;2.00;1.48;;;;;;;15.02;41.75;97915.81;5065386;28;20121;-29
2021/12/17 00:12:11;;;;;;;2.80;1.60;;;;;;;14.97;41.75;97908.09;5033526;28;20034;-29
2021/12/17 00:14:42;;;;;;;2.80;1.80;;;;;;;15.04;41.78;97907.19;5030131;28;20029;-29
2021/12/17 00:17:12;;;;;;;2.67;1.65;;;;;;;15.04;41.69;97899.00;5033607;28;20491;-30
2021/12/17 00:52:38;;;;;;;4.13;2.30;;;;;;;14.94;41.94;97884.38;5012955;28;20060;-29
2021/12/17 00:55:06;;;;;;;2.88;1.85;;;;;;;14.89;41.91;97886.81;5032633;28;20033;-29
2021/12/17 00:57:39;;;;;;;3.05;1.98;;;;;;;14.94;41.85;97886.31;5014199;28;20037;-29
2021/12/17 01:00:11;;;;;;;1.95;1.63;;;;;;;14.90;41.83;97899.28;5012756;28;20124;-29
2021/12/17 01:02:38;;;;;;;4.07;1.90;;;;;;;14.97;41.71;97893.66;5012357;28;20568;-29
2021/12/17 01:05:10;;;;;;;2.03;1.52;;;;;;;14.93;41.40;97899.22;5012711;28;20109;-29
2021/12/17 01:07:39;;;;;;;3.20;1.73;;;;;;;14.98;41.40;97878.81;5012538;28;20071;-29
2021/12/17 01:10:09;;;;;;;3.00;2.00;;;;;;;14.98;41.51;97876.84;5012408;28;20036;-30
2021/12/17 01:12:35;;;;;;;2.90;1.73;;;;;;;14.95;41.40;97877.72;5012319;28;20022;-29
2021/12/17 01:15:02;;;;;;;3.92;1.80;;;;;;;14.89;41.63;97886.81;5011329;28;20500;-29
2021/12/17 01:17:30;;;;;;;2.58;1.67;;;;;;;14.91;41.57;97879.72;5012378;28;20569;-29
2021/12/17 01:24:59;;;;;;;3.17;1.70;;;;;;;14.87;41.82;97897.38;5034159;28;20037;-29
2021/12/17 01:35:40;;;;;;;1.13;1.00;;;;;;;14.82;41.44;97881.47;5034073;28;20105;-29
2021/12/17 01:43:29;;;;;;;1.30;1.10;;;;;;;14.79;41.61;97891.28;5033835;28;20112;-29
2021/12/17 01:45:55;;;;;;;2.20;1.48;;;;;;;14.79;41.67;97868.66;5033605;28;20025;-29
2021/12/17 01:48:27;;;;;;;2.45;1.23;;;;;;;14.85;41.41;97867.75;5033601;28;20025;-29
2021/12/17 02:01:35;;;;;;;1.63;1.15;;;;;;;14.71;41.42;97857.84;5033537;28;20502;-29
2021/12/17 02:04:04;;;;;;;1.98;1.48;;;;;;;14.72;41.36;97862.13;5033625;28;20112;-30
2021/12/17 02:06:34;;;;;;;2.35;1.30;;;;;;;14.75;41.29;97849.59;5033351;28;20384;-29
2021/12/17 02:09:01;;;;;;;1.70;1.27;;;;;;;14.69;41.29;97852.06;5033541;28;20029;-29
2021/12/17 02:19:45;;;;;;;2.40;1.50;;;;;;;14.68;41.57;97850.53;5033191;28;20047;-29
2021/12/17 02:28:44;;;;;;;1.95;1.40;;;;;;;14.69;41.51;97840.38;5033510;28;20494;-29
2021/12/17 02:32:51;;;;;;;2.80;1.42;;;;;;;14.67;41.35;97835.31;5033343;28;20103;-29
2021/12/17 02:35:30;;;;;;;2.13;1.40;;;;;;;14.62;41.58;97838.53;5033226;28;20021;-29
2021/12/17 02:37:56;;;;;;;3.45;1.60;;;;;;;14.62;41.65;97841.25;5033237;28;20083;-29
2021/12/17 02:45:32;;;;;;;1.80;1.00;;;;;;;14.61;41.48;97844.41;5032918;28;20115;-29
2021/12/17 02:48:27;;;;;;;2.25;1.27;;;;;;;14.69;41.73;97846.59;5032892;28;20021;-29
2021/12/17 02:50:56;;;;;;;1.90;1.17;;;;;;;14.71;41.29;97841.47;5032303;28;20172;-29
2021/12/17 02:53:23;;;;;;;1.75;1.30;;;;;;;14.60;41.48;97853.78;5032842;28;20020;-29
2021/12/17 02:55:54;;;;;;;2.22;1.23;;;;;;;14.61;41.54;97852.59;5031365;28;20079;-29
2021/12/17 02:58:26;;;;;;;2.58;1.20;;;;;;;14.63;41.12;97845.53;5032799;28;20018;-29
2021/12/17 03:00:53;;;;;;;1.55;1.30;;;;;;;14.57;41.23;97849.94;5032615;28;20037;-29
2021/12/17 03:03:22;;;;;;;2.70;1.40;;;;;;;14.57;41.65;97836.28;5032675;28;20029;-29
2021/12/17 03:05:49;;;;;;;1.42;1.25;;;;;;;14.59;41.58;97847.53;5035734;28;20021;-29
2021/12/17 03:08:17;;;;;;;2.33;1.40;;;;;;;14.60;41.03;97838.16;5036661;28;20132;-29
2021/12/17 03:10:47;;;;;;;1.65;1.00;;;;;;;14.60;41.31;97832.72;5036765;28;20444;-29
2021/12/17 03:13:15;;;;;;;1.92;1.13;;;;;;;14.62;40.94;97830.34;5036571;28;20028;-29
2021/12/17 03:24:01;;;;;;;1.73;1.38;;;;;;;14.58;41.19;97829.66;4992199;28;20165;-29
2021/12/17 03:26:28;;;;;;;2.05;1.08;;;;;;;14.54;41.01;97820.75;4994446;28;20520;-29
2021/12/17 03:28:57;;;;;;;2.38;1.20;;;;;;;14.52;41.36;97828.56;4994780;28;20519;-29
2021/12/17 03:31:24;;;;;;;1.52;1.10;;;;;;;14.57;40.82;97825.38;4994699;28;20034;-29
2021/12/17 03:33:59;;;;;;;1.95;1.35;;;;;;;14.51;41.12;97820.81;4994659;28;20034;-29
2021/12/17 03:36:27;;;;;;;2.03;1.00;;;;;;;14.43;41.53;97828.38;4994922;28;20396;-29
2021/12/17 03:38:53;;;;;;;1.80;1.17;;;;;;;14.45;41.15;97820.53;4994628;28;20026;-29
2021/12/17 03:41:27;;;;;;;1.73;1.20;;;;;;;14.50;41.02;97827.44;4994769;28;20049;-29
2021/12/17 03:43:55;;;;;;;1.20;0.90;;;;;;;14.53;40.83;97824.66;4994779;28;20030;-29
2021/12/17 03:46:21;;;;;;;2.40;1.20;;;;;;;14.48;41.20;97830.59;4994342;28;20022;-29
2021/12/17 03:48:47;;;;;;;1.50;1.05;;;;;;;14.57;41.02;97824.59;4994344;28;20038;-29
2021/12/17 03:51:15;;;;;;;3.30;1.20;;;;;;;14.55;40.73;97827.75;4994718;28;20034;-29
2021/12/17 03:53:47;;;;;;;2.08;1.10;;;;;;;14.53;40.67;97816.47;5005904;28;20064;-29
2021/12/17 03:56:13;;;;;;;1.83;1.20;;;;;;;14.48;41.06;97824.34;5035658;28;20021;-29
2021/12/17 03:58:39;;;;;;;1.20;0.95;;;;;;;14.56;40.91;97821.09;5035732;28;20521;-29
2021/12/17 04:01:05;;;;;;;1.55;1.00;;;;;;;14.59;40.66;97824.94;5035461;28;20053;-29
2021/12/17 04:03:31;;;;;;;1.38;0.90;;;;;;;14.60;40.68;97824.53;5035614;28;20041;-29
2021/12/17 04:05:57;;;;;;;2.03;0.98;;;;;;;14.55;40.73;97822.28;5035377;28;20025;-29
2021/12/17 04:08:22;;;;;;;1.33;1.10;;;;;;;14.59;40.64;97835.84;5034163;28;20036;-29
2021/12/17 04:10:51;;;;;;;2.28;1.20;;;;;;;14.57;40.75;97833.56;5035710;28;20440;-29
2021/12/17 04:18:44;;;;;;;1.83;1.10;;;;;;;14.50;40.68;97850.06;5030642;28;20038;-29
2021/12/17 04:21:14;;;;;;;2.33;1.10;;;;;;;14.46;40.69;97864.97;5035313;28;20475;-29
2021/12/17 04:23:42;;;;;;;1.65;1.20;;;;;;;14.50;40.84;97855.53;5035181;28;20483;-29
2021/12/17 04:26:08;;;;;;;1.58;1.00;;;;;;;14.49;40.88;97853.19;5035085;28;20028;-29
2021/12/17 04:28:40;;;;;;;1.73;1.17;;;;;;;14.54;40.80;97855.47;5033843;28;20440;-29
2021/12/17 04:31:06;;;;;;;2.58;1.45;;;;;;;14.52;40.72;97857.84;5035069;28;20472;-29
2021/12/17 04:33:31;;;;;;;2.30;1.13;;;;;;;14.49;40.88;97858.66;5033895;28;20066;-29
2021/12/17 04:35:57;;;;;;;1.42;1.02;;;;;;;14.49;40.19;97853.97;5035037;28;20484;-29
2021/12/17 04:38:25;;;;;;;2.22;1.15;;;;;;;14.46;40.58;97864.97;5035253;28;20156;-29
2021/12/17 04:40:52;;;;;;;1.48;1.02;;;;;;;14.43;41.00;97866.56;5035034;28;20080;-29
2021/12/17 04:43:41;;;;;;;1.30;1.00;;;;;;;14.47;40.83;97875.44;5034879;28;20021;-29
2021/12/17 04:59:47;;;;;;;2.92;1.08;;;;;;;14.43;40.61;97896.59;5034748;28;20496;-29
2021/12/17 05:02:14;;;;;;;1.55;1.05;;;;;;;14.47;40.74;97899.25;5033411;28;20498;-29
2021/12/17 05:04:41;;;;;;;2.25;1.17;;;;;;;14.45;40.65;97891.50;5034320;28;20026;-29
2021/12/17 05:07:08;;;;;;;1.50;1.17;;;;;;;14.48;40.85;97900.78;5034422;28;20026;-29
2021/12/17 05:09:46;;;;;;;1.85;1.10;;;;;;;14.34;40.74;97901.81;5034279;28;20018;-29
2021/12/17 05:20:41;;;;;;;2.53;1.02;;;;;;;14.44;40.70;97894.66;5034192;28;20032;-29
2021/12/17 05:22:58;;;;;;;1.55;1.10;;;;;;;14.47;40.71;97899.25;5033885;28;20045;-29
2021/12/17 05:25:29;;;;;;;2.78;1.10;;;;;;;14.61;40.44;97905.25;5034076;28;20076;-29
2021/12/17 05:28:00;;;;;;;1.70;1.25;;;;;;;14.57;40.50;97898.31;5033641;28;20053;-29
2021/12/17 05:30:29;;;;;;;1.90;1.38;;;;;;;14.55;40.57;97895.22;5034148;28;20483;-29
2021/12/17 05:32:56;;;;;;;1.50;1.10;;;;;;;14.40;40.53;97893.91;5034045;28;20063;-29
2021/12/17 05:35:22;;;;;;;2.55;1.10;;;;;;;14.43;40.61;97899.31;5032816;28;20021;-29
2021/12/17 05:37:48;;;;;;;2.42;0.90;;;;;;;14.44;40.55;97898.16;5033907;28;20068;-29
2021/12/17 05:40:13;;;;;;;1.27;1.10;;;;;;;14.47;40.75;97894.56;5033948;28;20053;-29
2021/12/17 05:42:41;;;;;;;1.83;0.93;;;;;;;14.41;40.40;97893.50;5033838;28;20034;-29
2021/12/17 05:45:20;;;;;;;1.90;1.00;;;;;;;14.41;40.85;97896.25;5032453;28;20025;-29
2021/12/17 05:47:46;;;;;;;1.73;1.13;;;;;;;14.45;40.68;97901.66;5033681;28;20025;-29
2021/12/17 05:50:12;;;;;;;1.95;1.30;;;;;;;14.46;40.42;97895.78;5033832;28;20021;-29
2021/12/17 05:52:37;;;;;;;1.85;1.15;;;;;;;14.41;40.55;97895.47;5033714;28;20080;-29
2021/12/17 05:55:04;;;;;;;1.48;0.90;;;;;;;14.41;40.93;97901.69;5033454;28;20164;-29
2021/12/17 05:57:29;;;;;;;2.35;1.00;;;;;;;14.33;40.90;97900.25;5033471;28;20030;-29
2021/12/17 05:59:55;;;;;;;1.80;1.30;;;;;;;14.39;40.73;97895.84;5033545;28;20041;-29
2021/12/17 06:02:20;;;;;;;1.90;1.10;;;;;;;14.38;40.95;97907.94;5032130;28;20029;-30
2021/12/17 06:04:46;;;;;;;2.75;1.42;;;;;;;14.40;40.87;97904.84;5033453;28;20373;-29
2021/12/17 06:07:12;;;;;;;3.28;1.10;;;;;;;14.38;40.93;97911.44;5033719;28;20025;-29
2021/12/17 06:09:38;;;;;;;3.20;1.10;;;;;;;14.44;40.52;97916.47;5033285;28;20029;-30
2021/12/17 06:12:04;;;;;;;1.73;1.10;;;;;;;14.43;40.66;97918.44;5033493;28;20053;-32
2021/12/17 06:14:30;;;;;;;1.88;1.27;;;;;;;14.40;40.90;97905.63;5033302;28;20025;-30
2021/12/17 06:16:57;;;;;;;2.10;1.50;;;;;;;14.40;40.74;97915.75;5031979;28;20104;-30
2021/12/17 06:19:22;;;;;;;1.70;1.10;;;;;;;14.38;40.85;97916.13;5033442;28;20037;-30
2021/12/17 06:21:48;;;;;;;3.15;1.25;;;;;;;14.39;40.91;97914.97;5033425;28;20029;-32
2021/12/17 06:24:14;;;;;;;1.98;1.20;;;;;;;14.42;40.91;97914.16;5033332;28;20017;-30
2021/12/17 06:26:40;;;;;;;2.08;1.25;;;;;;;14.46;40.83;97920.34;5033109;28;20033;-30
2021/12/17 06:29:05;;;;;;;2.50;1.35;;;;;;;14.41;40.63;97925.50;5033303;28;20021;-30
2021/12/17 06:31:31;;;;;;;1.73;1.30;;;;;;;14.47;40.87;97910.94;5033227;28;20021;-30
2021/12/17 06:33:56;;;;;;;2.00;1.10;;;;;;;14.37;40.61;97917.31;5033290;28;20029;-30
2021/12/17 06:36:22;;;;;;;3.45;1.38;;;;;;;14.41;41.00;97930.94;5033100;28;20018;-30
2021/12/17 06:38:47;;;;;;;1.80;1.17;;;;;;;14.44;40.80;97927.41;5033133;28;20470;-30
2021/12/17 06:41:13;;;;;;;3.13;1.10;;;;;;;14.30;41.07;97933.81;5037511;28;20078;-30
2021/12/17 06:43:41;;;;;;;2.42;1.10;;;;;;;14.32;40.98;97926.00;5034879;28;20033;-30
2021/12/17 06:48:42;;;;;;;1.90;1.30;;;;;;;14.42;40.93;97927.81;5020565;28;20076;-30
2021/12/17 07:18:02;;;;;;;1.98;1.30;;;;;;;14.48;40.86;97923.41;4973287;28;20030;-30
2021/12/17 07:23:23;;;;;;;2.45;1.48;;;;;;;14.33;41.35;97938.47;4973672;28;20131;-30
2021/12/17 07:33:47;;;;;;;2.65;1.58;;;;;;;14.40;41.15;97960.19;4979242;28;20018;-30
2021/12/17 07:36:15;;;;;;;1.90;1.60;;;;;;;14.44;40.96;97960.94;4992536;28;20034;-30
2021/12/17 07:38:49;;;;;;;2.83;1.50;;;;;;;14.42;41.11;97962.53;5023400;28;20402;-31
2021/12/17 07:41:14;;;;;;;1.73;1.38;;;;;;;14.46;40.96;97969.47;5034263;28;20040;-31
2021/12/17 07:43:51;;;;;;;2.95;1.45;;;;;;;14.46;40.97;97969.47;5032813;28;20021;-31
2021/12/17 07:46:17;;;;;;;3.55;1.63;;;;;;;14.35;41.58;97974.28;5032842;28;20134;-30
2021/12/17 07:48:42;;;;;;;3.10;1.55;;;;;;;14.41;41.22;97971.91;5034138;28;20111;-30
2021/12/17 07:51:11;;;;;;;3.42;1.77;;;;;;;14.42;41.01;97971.47;5033678;28;20033;-31
2021/12/17 07:53:37;;;;;;;2.28;1.23;;;;;;;14.48;40.98;97967.09;5034279;28;20033;-30
2021/12/17 07:56:05;;;;;;;2.50;1.63;;;;;;;14.41;41.66;97967.22;5032054;28;20025;-30
2021/12/17 07:58:31;;;;;;;2.60;1.40;;;;;;;14.40;41.36;97975.81;5033804;28;20479;-30
2021/12/17 08:00:57;;;;;;;2.53;1.60;;;;;;;14.35;41.43;97977.78;5033679;28;20059;-31
2021/12/17 08:03:23;;;;;;;3.28;1.50;;;;;;;14.37;41.25;97983.59;5033944;28;20456;-30
2021/12/17 08:05:49;;;;;;;2.55;1.73;;;;;;;14.39;41.69;97977.72;5033193;28;20036;-31
2021/12/17 08:08:15;;;;;;;4.22;1.88;;;;;;;14.37;41.38;97982.81;5032983;28;20114;-30
2021/12/17 08:10:41;;;;;;;4.93;1.75;;;;;;;14.43;41.24;97991.38;5032157;28;20495;-30
2021/12/17 08:13:12;;;;;;;1.77;1.50;;;;;;;14.26;41.79;97982.22;5033784;28;20034;-30
2021/12/17 08:15:45;;;;;;;3.08;1.70;;;;;;;14.26;41.78;97987.69;5033620;28;20667;-30
2021/12/17 08:31:28;;;;;;;3.75;1.80;;;;;;;14.37;41.91;98013.63;5031462;28;20017;-31
2021/12/17 08:33:55;;;;;;;4.60;2.38;;;;;;;13.87;42.90;98010.81;5033377;28;20384;-30
2021/12/17 08:36:21;;;;;;;3.17;2.10;;;;;;;14.14;42.13;98015.53;5031886;28;20108;-30
2021/12/17 08:38:50;;;;;;;3.55;2.10;;;;;;;14.23;42.14;98026.69;5033259;28;20448;-30
2021/12/17 08:41:18;;;;;;;4.03;2.30;;;;;;;14.26;41.75;98020.41;5033034;28;20105;-30
2021/12/17 08:43:44;;;;;;;5.55;2.97;;;;;;;14.33;41.93;98033.97;5032931;28;20033;-30
2021/12/17 08:46:10;;;;;;;4.22;2.08;;;;;;;14.37;41.86;98031.94;5032832;28;20030;-30
2021/12/17 08:48:36;;;;;;;3.95;2.42;;;;;;;14.36;42.03;98035.88;5032825;28;20025;-30
2021/12/17 08:51:03;;;;;;;4.25;2.50;;;;;;;14.29;41.92;98030.53;5031269;28;20384;-31
2021/12/17 08:53:28;;;;;;;3.35;2.22;;;;;;;14.33;41.84;98033.97;5032709;28;20029;-30
2021/12/17 08:55:54;;;;;;;3.63;2.60;;;;;;;14.47;41.50;98036.50;5032590;28;20029;-30
2021/12/17 08:58:20;;;;;;;5.90;2.40;;;;;;;14.40;41.87;98041.31;5032572;28;20105;-30
2021/12/17 09:00:46;;;;;;;6.00;2.88;;;;;;;14.44;41.49;98047.50;5032371;28;20766;-30
2021/12/17 09:03:12;;;;;;;5.25;2.60;;;;;;;14.19;42.19;98048.59;5031684;28;20025;-30
2021/12/17 09:05:40;;;;;;;4.63;2.40;;;;;;;14.28;42.04;98064.44;5032362;28;20028;-30
2021/12/17 09:08:08;;;;;;;4.80;3.00;;;;;;;14.13;42.27;98057.63;5032161;28;20557;-30
2021/12/17 09:10:34;;;;;;;6.55;3.10;;;;;;;14.35;41.96;98067.06;5032558;28;20037;-30
2021/12/17 09:13:00;;;;;;;6.60;3.10;;;;;;;14.31;42.17;98058.94;5032632;28;20040;-30
2021/12/17 09:15:26;;;;;;;5.57;2.70;;;;;;;14.24;42.35;98050.84;5032659;28;20123;-30
2021/12/17 09:17:52;;;;;;;9.68;3.58;;;;;;;14.05;42.43;98054.22;5032296;28;20025;-30
2021/12/17 09:20:18;;;;;;;6.80;3.58;;;;;;;14.21;42.65;98059.09;5031885;28;20039;-30
2021/12/17 09:22:43;;;;;;;5.53;3.00;;;;;;;14.19;42.41;98062.25;5032188;28;20041;-30
2021/12/17 09:25:10;;;;;;;7.80;3.20;;;;;;;14.16;42.76;98065.00;5031997;28;20792;-30
2021/12/17 09:27:36;;;;;;;9.02;3.10;;;;;;;14.31;42.05;98069.09;5031944;28;20025;-30
2021/12/17 09:30:04;;;;;;;7.90;3.50;;;;;;;14.29;42.15;98063.28;5030524;28;20025;-31
2021/12/17 09:32:29;;;;;;;6.28;3.25;;;;;;;14.32;42.39;98065.97;5032322;28;20434;-31
2021/12/17 09:34:54;;;;;;;4.85;2.95;;;;;;;14.31;42.24;98078.06;5032829;28;20021;-30
2021/12/17 09:37:20;;;;;;;6.63;3.63;;;;;;;13.50;44.52;98070.84;5033395;28;20022;-30
2021/12/17 09:39:45;;;;;;;5.07;3.40;;;;;;;13.24;45.10;98067.59;5033588;28;20476;-29
2021/12/17 09:42:11;;;;;;;5.40;3.10;;;;;;;13.72;44.11;98058.56;5033967;28;20108;-29
2021/12/17 09:44:37;;;;;;;7.40;2.90;;;;;;;13.90;43.44;98064.56;5033867;28;20036;-29
2021/12/17 09:47:03;;;;;;;3.97;2.65;;;;;;;14.03;42.92;98062.81;5033549;28;20029;-29
2021/12/17 09:49:28;;;;;;;4.43;2.60;;;;;;;14.17;42.89;98061.09;5033962;28;20037;-29
2021/12/17 09:51:56;;;;;;;4.95;2.50;;;;;;;13.99;42.98;98061.31;5033948;28;20119;-29
2021/12/17 09:54:22;;;;;;;4.13;2.50;;;;;;;14.16;42.98;98065.78;5033480;28;20017;-29
2021/12/17 09:56:48;;;;;;;3.22;2.28;;;;;;;14.33;42.30;98064.00;5033898;28;20021;-29
2021/12/17 09:59:14;;;;;;;4.07;2.53;;;;;;;14.40;42.14;98063.91;5033335;28;20077;-29
2021/12/17 10:01:42;;;;;;;4.20;2.53;;;;;;;14.35;42.29;98067.84;5034042;28;20017;-29
2021/12/17 10:04:16;;;;;;;3.90;2.50;;;;;;;14.15;42.89;98066.97;5032463;28;20471;-29
2021/12/17 10:06:43;;;;;;;4.15;2.50;;;;;;;14.24;42.53;98072.69;5033663;28;20480;-29
2021/12/17 10:09:09;;;;;;;5.28;3.05;;;;;;;14.02;43.02;98066.72;5033739;28;20025;-29
2021/12/17 10:11:35;;;;;;;2.90;2.20;;;;;;;14.28;42.48;98080.81;5033520;28;20480;-29
2021/12/17 10:14:24;;;;;;;4.05;2.90;;;;;;;14.41;42.24;98065.47;5033387;28;20029;-29
2021/12/17 10:16:50;;;;;;;3.60;2.60;;;;;;;14.43;42.26;98059.59;5033647;28;20033;-29
2021/12/17 10:19:49;;;;;;;4.95;2.55;;;;;;;14.13;42.83;98049.44;5033492;28;20557;-29
2021/12/17 10:22:18;;;;;;;3.17;2.47;;;;;;;14.09;43.25;98048.75;5033030;28;20053;-29
2021/12/17 10:25:09;;;;;;;5.20;2.83;;;;;;;14.15;42.97;98036.19;5033336;28;20059;-29
2021/12/17 10:27:37;;;;;;;3.58;2.47;;;;;;;14.37;42.84;98040.91;5033457;28;20511;-29
2021/12/17 10:30:18;;;;;;;3.35;2.10;;;;;;;13.90;43.45;98026.38;5033291;28;20040;-29
2021/12/17 10:32:46;;;;;;;4.97;3.20;;;;;;;13.79;43.59;98031.19;5033345;28;20104;-29
2021/12/17 10:35:16;;;;;;;3.83;2.35;;;;;;;13.90;43.74;98040.00;5033072;28;20079;-29
2021/12/17 10:37:44;;;;;;;3.63;2.33;;;;;;;13.99;43.40;98020.41;5033140;28;20026;-29
2021/12/17 10:40:19;;;;;;;5.70;2.22;;;;;;;13.86;43.66;98020.16;5033446;28;20464;-29
2021/12/17 10:42:57;;;;;;;4.63;2.10;;;;;;;14.09;43.38;98011.31;5033156;28;20400;-29
2021/12/17 10:45:26;;;;;;;3.28;2.40;;;;;;;14.11;43.12;98008.16;5033097;28;20394;-29
2021/12/17 10:50:48;;;;;;;3.70;1.90;;;;;;;14.20;42.98;98002.97;5033030;28;20033;-29
2021/12/17 10:53:14;;;;;;;2.50;1.73;;;;;;;13.95;43.51;98001.38;5033028;28;20529;-29
2021/12/17 10:55:45;;;;;;;5.97;2.40;;;;;;;13.80;43.90;98004.69;5033275;28;20116;-29
2021/12/17 10:58:10;;;;;;;2.47;1.60;;;;;;;13.81;43.71;98012.47;5033395;28;20026;-29
2021/12/17 11:00:46;;;;;;;3.72;1.83;;;;;;;13.84;44.02;98010.88;5033084;28;20133;-29
2021/12/17 11:03:12;;;;;;;3.28;1.88;;;;;;;14.29;42.86;98016.88;5033095;28;20430;-29
2021/12/17 11:05:38;;;;;;;3.90;2.50;;;;;;;14.44;42.39;98015.53;5032964;28;20037;-29
2021/12/17 11:08:18;;;;;;;4.53;2.60;;;;;;;14.30;42.93;98015.69;5032918;28;20102;-29
2021/12/17 11:10:55;;;;;;;3.28;1.90;;;;;;;14.15;43.26;98004.22;5032916;28;20045;-29
2021/12/17 11:13:21;;;;;;;4.57;2.10;;;;;;;14.33;42.46;97999.28;5033067;28;20432;-29
2021/12/17 11:15:47;;;;;;;3.45;2.22;;;;;;;14.21;43.02;97985.44;5032871;28;20037;-29
2021/12/17 11:18:14;;;;;;;3.08;1.70;;;;;;;14.31;42.89;98000.88;5032745;28;20025;-29
2021/12/17 11:20:40;;;;;;;2.85;1.77;;;;;;;14.40;42.42;98001.16;5032963;28;20022;-29
2021/12/17 11:23:11;;;;;;;5.07;1.98;;;;;;;14.19;42.89;97998.72;5032698;28;20030;-29
2021/12/17 11:25:40;;;;;;;5.47;2.22;;;;;;;14.35;42.60;97998.84;5032823;28;20128;-29
2021/12/17 11:28:08;;;;;;;2.70;1.67;;;;;;;14.21;42.65;97996.34;5036448;28;20463;-29
2021/12/17 11:30:36;;;;;;;6.00;1.90;;;;;;;14.45;42.18;97997.97;5036415;28;20064;-29
2021/12/17 11:33:04;;;;;;;2.65;1.70;;;;;;;14.59;42.08;98005.91;5018540;28;20026;-29
2021/12/17 11:35:31;;;;;;;2.92;1.70;;;;;;;14.47;42.44;97998.28;5014981;28;20053;-29
2021/12/17 11:38:04;;;;;;;2.67;1.90;;;;;;;14.59;42.21;98000.44;5016347;28;20021;-29
2021/12/17 11:40:32;;;;;;;3.03;1.70;;;;;;;14.67;42.03;97999.16;5016682;28;20022;-29
2021/12/17 11:43:19;;;;;;;3.15;1.65;;;;;;;14.70;41.95;97986.63;5016441;28;20029;-29
2021/12/17 11:45:57;;;;;;;2.95;1.58;;;;;;;14.67;41.84;97973.81;5016357;28;20022;-29
2021/12/17 11:48:26;;;;;;;4.03;1.83;;;;;;;14.72;41.98;97987.75;5016590;28;20026;-29
2021/12/17 11:51:16;;;;;;;3.03;1.60;;;;;;;14.51;42.02;97977.19;5016329;28;20365;-29
2021/12/17 11:54:00;;;;;;;3.50;1.80;;;;;;;14.49;42.16;97974.09;5015794;28;20489;-29
2021/12/17 11:56:32;;;;;;;3.47;1.55;;;;;;;14.64;42.16;97983.59;5016144;28;20030;-29
2021/12/17 11:58:58;;;;;;;2.95;1.73;;;;;;;14.72;41.99;97976.81;5015966;28;20503;-29
2021/12/17 12:01:51;;;;;;;2.67;1.80;;;;;;;14.68;42.11;97964.44;5015979;28;20026;-29
2021/12/17 12:04:32;;;;;;;2.97;2.00;;;;;;;14.72;41.98;97965.91;5047981;28;20026;-29
2021/12/17 12:07:12;;;;;;;2.45;1.75;;;;;;;14.73;42.01;97967.44;5016207;28;20476;-29
2021/12/17 12:10:03;;;;;;;2.35;1.60;;;;;;;14.76;41.77;97970.53;5015992;28;20033;-29
2021/12/17 12:12:34;;;;;;;2.35;1.42;;;;;;;14.73;41.85;97961.97;5047998;28;20054;-29
2021/12/17 12:15:27;;;;;;;2.08;1.67;;;;;;;14.78;41.91;97962.69;5016004;28;20033;-29
2021/12/17 12:18:01;;;;;;;2.45;1.92;;;;;;;14.65;42.23;97955.09;5015766;28;20026;-29
2021/12/17 12:20:47;;;;;;;2.53;1.50;;;;;;;14.73;42.02;97956.53;5015823;28;20034;-29
2021/12/17 12:23:13;;;;;;;2.97;1.88;;;;;;;14.71;42.24;97942.50;5015718;28;20025;-29
2021/12/17 12:25:39;;;;;;;3.33;1.60;;;;;;;14.76;41.92;97940.50;5015392;28;20530;-29
2021/12/17 12:28:05;;;;;;;2.47;1.55;;;;;;;14.76;42.05;97932.31;5015538;28;20113;-29
2021/12/17 12:30:40;;;;;;;2.63;1.52;;;;;;;14.71;42.38;97936.31;5015953;28;20041;-29
2021/12/17 12:33:08;;;;;;;4.07;2.00;;;;;;;14.69;42.31;97914.88;5015419;28;20026;-29
2021/12/17 12:35:34;;;;;;;2.88;1.80;;;;;;;14.70;42.21;97919.13;5015548;28;20022;-29
2021/12/17 12:38:22;;;;;;;4.32;1.60;;;;;;;14.52;42.20;97901.50;5014179;28;20101;-29
2021/12/17 12:40:54;;;;;;;4.20;1.85;;;;;;;14.60;42.39;97903.69;5015407;28;20026;-29
2021/12/17 12:43:35;;;;;;;2.78;1.90;;;;;;;14.69;42.24;97903.94;5015267;28;20025;-29
2021/12/17 12:46:01;;;;;;;2.97;2.00;;;;;;;14.74;42.18;97897.97;5015168;28;20477;-29
2021/12/17 12:48:38;;;;;;;2.90;1.75;;;;;;;14.72;42.05;97892.16;5015333;28;20483;-29
2021/12/17 12:51:23;;;;;;;2.55;1.75;;;;;;;14.62;42.39;97884.16;5015070;28;20018;-29
2021/12/17 12:54:08;;;;;;;3.20;2.08;;;;;;;14.62;42.37;97893.13;5015052;28;20476;-29
2021/12/17 12:56:38;;;;;;;2.40;1.63;;;;;;;14.67;42.26;97879.00;5015443;28;20068;-29
2021/12/17 12:59:06;;;;;;;2.70;1.65;;;;;;;14.71;42.16;97884.41;5014868;28;20109;-29
2021/12/17 13:01:32;;;;;;;3.05;1.75;;;;;;;14.60;42.40;97887.31;5013548;28;20044;-29
2021/12/17 13:03:57;;;;;;;3.47;2.10;;;;;;;14.67;42.31;97880.97;5015109;28;20026;-29
2021/12/17 13:06:23;;;;;;;3.35;2.00;;;;;;;14.73;42.38;97888.25;5014972;28;20026;-29
2021/12/17 13:08:54;;;;;;;2.85;2.10;;;;;;;14.21;43.62;97889.94;5014871;28;20119;-29
2021/12/17 13:11:21;;;;;;;2.55;1.95;;;;;;;14.45;42.82;97891.50;5014558;28;20026;-29
2021/12/17 13:13:53;;;;;;;3.38;1.90;;;;;;;14.45;43.16;97888.78;5014714;28;20021;-29
2021/12/17 13:24:16;;;;;;;2.17;1.70;;;;;;;14.62;42.64;97876.75;5014757;28;20507;-29
2021/12/17 13:26:57;;;;;;;4.30;1.70;;;;;;;14.67;42.34;97879.00;5014482;28;20026;-29
2021/12/17 13:29:32;;;;;;;2.78;1.88;;;;;;;14.68;42.62;97872.38;5014677;28;20026;-29
2021/12/17 13:32:01;;;;;;;2.80;2.00;;;;;;;14.70;42.69;97869.22;5014489;28;20108;-29
2021/12/17 13:34:33;;;;;;;2.92;1.65;;;;;;;14.66;42.63;97868.50;5013686;28;20033;-29
2021/12/17 13:37:01;;;;;;;2.57;1.60;;;;;;;14.63;42.69;97872.84;5014384;28;20033;-29
2021/12/17 13:39:32;;;;;;;2.90;1.95;;;;;;;14.50;42.76;97863.72;5014330;28;20029;-29
2021/12/17 13:41:58;;;;;;;3.00;2.03;;;;;;;14.65;42.55;97864.22;5014156;28;20026;-29
2021/12/17 13:44:36;;;;;;;3.30;2.40;;;;;;;14.68;42.45;97864.16;5014042;28;20025;-29
2021/12/17 13:47:19;;;;;;;2.85;2.00;;;;;;;14.74;42.23;97870.69;5013944;28;20030;-29
2021/12/17 13:49:56;;;;;;;3.55;2.47;;;;;;;14.73;42.15;97873.81;5013336;28;20032;-29
2021/12/17 13:52:24;;;;;;;2.50;1.80;;;;;;;14.73;42.46;97873.81;5009716;28;20030;-29
2021/12/17 13:54:50;;;;;;;5.15;2.30;;;;;;;14.27;43.56;97891.75;4999410;28;20037;-29
2021/12/17 13:57:18;;;;;;;3.85;2.17;;;;;;;14.61;42.84;97888.84;5010327;28;20029;-29
2021/12/17 13:59:46;;;;;;;3.70;2.13;;;;;;;14.66;42.67;97874.75;5009983;28;20404;-29
2021/12/17 14:02:20;;;;;;;3.47;1.95;;;;;;;14.72;42.59;97873.03;5011147;28;20492;-29
2021/12/17 14:05:11;;;;;;;4.07;2.30;;;;;;;14.64;42.87;97874.38;5010858;28;20030;-29
2021/12/17 14:07:38;;;;;;;3.20;2.20;;;;;;;14.77;42.44;97868.31;5011473;28;20030;-29
2021/12/17 14:10:22;;;;;;;3.85;2.38;;;;;;;14.61;43.06;97871.69;5011519;28;20029;-29
2021/12/17 14:12:49;;;;;;;2.80;1.90;;;;;;;14.65;42.59;97867.72;5010863;28;20025;-29
2021/12/17 14:15:20;;;;;;;3.38;2.28;;;;;;;14.71;42.59;97859.84;5011300;28;20075;-29
2021/12/17 14:17:54;;;;;;;3.88;2.25;;;;;;;14.65;42.83;97867.72;5011494;28;20022;-29
2021/12/17 14:20:22;;;;;;;4.60;2.30;;;;;;;14.69;42.91;97868.44;5022945;28;20515;-29
2021/12/17 14:22:50;;;;;;;3.78;2.55;;;;;;;14.72;42.79;97875.78;5028722;28;20129;-29
2021/12/17 14:25:44;;;;;;;2.65;2.20;;;;;;;14.71;42.93;97879.69;5031242;28;20027;-29
2021/12/17 14:28:15;;;;;;;3.53;2.50;;;;;;;14.77;42.81;97865.56;5031128;28;20040;-29
2021/12/17 14:30:44;;;;;;;2.47;1.90;;;;;;;14.71;42.74;97866.03;5029412;28;20462;-29
2021/12/17 14:33:16;;;;;;;3.72;2.20;;;;;;;14.71;42.78;97860.59;5030112;28;20030;-29
2021/12/17 14:35:48;;;;;;;3.45;2.42;;;;;;;14.74;42.88;97865.22;5031232;28;20025;-29
2021/12/17 14:38:15;;;;;;;3.30;2.45;;;;;;;14.73;42.89;97869.13;5030816;28;20026;-29
2021/12/17 14:43:28;;;;;;;4.13;2.45;;;;;;;14.64;43.13;97849.03;5027664;28;20392;-29
2021/12/17 14:46:00;;;;;;;3.42;2.25;;;;;;;14.71;43.17;97859.84;5030588;28;20056;-29
2021/12/17 14:48:36;;;;;;;3.15;2.30;;;;;;;14.74;42.96;97862.47;5031104;28;20037;-29
2021/12/17 15:00:21;;;;;;;4.43;2.47;;;;;;;14.73;43.17;97880.06;5030546;28;20084;-29
2021/12/17 15:05:07;;;;;;;4.07;2.70;;;;;;;14.71;43.14;97868.03;5034911;28;20029;-29
2021/12/17 15:07:33;;;;;;;3.80;2.38;;;;;;;14.69;43.19;97857.53;5034589;28;20078;-29